Terminal Aerodrome Forecast
Issued by NWS Cleveland, OH

Home | Current Version | Previous Version | Graphics & Text | Print | Product List | Glossary On
Versions: 1 2 3 4 5 6 7 8 9 10 11 12 13 14 15 16 17 18 19 20 21 22 23 24 25 26
662
FTUS41 KCLE 201728
TAFCLE
TAF
KCLE 201728Z 2018/2124 02009KT P6SM FEW050 BKN250
     FM210100 VRB03KT P6SM SKC
     FM211300 24008KT P6SM BKN250=

USA.gov is the U.S. government's official web portal to all federal, state and local government web resources and services.